sensor_id;sensor_type;location;lat;lon;timestamp;P1;durP1;ratioP1;P2;durP2;ratioP2
50932;SDS011;36921;49.006;9.292;2023-04-28T00:00:24;7.25;;;2.70;;
50932;SDS011;36921;49.006;9.292;2023-04-28T00:02:51;9.35;;;2.72;;
50932;SDS011;36921;49.006;9.292;2023-04-28T00:05:17;3.95;;;2.72;;
50932;SDS011;36921;49.006;9.292;2023-04-28T00:07:43;6.15;;;2.70;;
50932;SDS011;36921;49.006;9.292;2023-04-28T00:10:08;4.75;;;2.63;;
50932;SDS011;36921;49.006;9.292;2023-04-28T00:12:35;4.60;;;2.60;;
50932;SDS011;36921;49.006;9.292;2023-04-28T00:15:00;4.65;;;2.60;;
50932;SDS011;36921;49.006;9.292;2023-04-28T00:17:26;5.63;;;2.40;;
50932;SDS011;36921;49.006;9.292;2023-04-28T00:19:51;4.70;;;2.45;;
50932;SDS011;36921;49.006;9.292;2023-04-28T00:22:17;9.55;;;2.70;;
50932;SDS011;36921;49.006;9.292;2023-04-28T00:24:42;4.47;;;2.60;;
50932;SDS011;36921;49.006;9.292;2023-04-28T00:27:08;4.38;;;2.65;;
50932;SDS011;36921;49.006;9.292;2023-04-28T00:29:34;4.95;;;2.50;;
50932;SDS011;36921;49.006;9.292;2023-04-28T00:31:59;6.00;;;2.50;;
50932;SDS011;36921;49.006;9.292;2023-04-28T00:34:24;6.30;;;2.50;;
50932;SDS011;36921;49.006;9.292;2023-04-28T00:36:50;7.85;;;2.63;;
50932;SDS011;36921;49.006;9.292;2023-04-28T00:39:15;4.40;;;2.50;;
50932;SDS011;36921;49.006;9.292;2023-04-28T00:41:42;5.43;;;2.78;;
50932;SDS011;36921;49.006;9.292;2023-04-28T00:44:07;6.20;;;3.00;;
50932;SDS011;36921;49.006;9.292;2023-04-28T00:46:33;4.43;;;2.60;;
50932;SDS011;36921;49.006;9.292;2023-04-28T00:48:58;5.75;;;2.97;;
50932;SDS011;36921;49.006;9.292;2023-04-28T00:51:24;4.10;;;2.50;;
50932;SDS011;36921;49.006;9.292;2023-04-28T00:53:51;4.25;;;2.65;;
50932;SDS011;36921;49.006;9.292;2023-04-28T00:56:16;3.28;;;2.25;;
50932;SDS011;36921;49.006;9.292;2023-04-28T00:58:42;7.25;;;2.50;;
50932;SDS011;36921;49.006;9.292;2023-04-28T01:01:09;6.50;;;2.60;;
50932;SDS011;36921;49.006;9.292;2023-04-28T01:03:35;5.13;;;2.33;;
50932;SDS011;36921;49.006;9.292;2023-04-28T01:06:05;6.43;;;2.80;;
50932;SDS011;36921;49.006;9.292;2023-04-28T01:08:34;8.85;;;2.90;;
50932;SDS011;36921;49.006;9.292;2023-04-28T01:11:00;3.17;;;2.50;;
50932;SDS011;36921;49.006;9.292;2023-04-28T01:13:26;4.82;;;2.50;;
50932;SDS011;36921;49.006;9.292;2023-04-28T01:15:52;7.22;;;2.80;;
50932;SDS011;36921;49.006;9.292;2023-04-28T01:18:19;6.80;;;2.55;;
50932;SDS011;36921;49.006;9.292;2023-04-28T01:20:44;5.00;;;2.83;;
50932;SDS011;36921;49.006;9.292;2023-04-28T01:23:13;10.00;;;3.10;;
50932;SDS011;36921;49.006;9.292;2023-04-28T01:25:40;10.65;;;3.00;;
50932;SDS011;36921;49.006;9.292;2023-04-28T01:28:07;7.05;;;2.70;;
50932;SDS011;36921;49.006;9.292;2023-04-28T01:30:33;5.50;;;3.42;;
50932;SDS011;36921;49.006;9.292;2023-04-28T01:33:00;4.75;;;2.47;;
50932;SDS011;36921;49.006;9.292;2023-04-28T01:35:26;6.18;;;2.72;;
50932;SDS011;36921;49.006;9.292;2023-04-28T01:37:53;4.45;;;2.53;;
50932;SDS011;36921;49.006;9.292;2023-04-28T01:40:18;5.18;;;2.45;;
50932;SDS011;36921;49.006;9.292;2023-04-28T01:42:43;4.38;;;2.60;;
50932;SDS011;36921;49.006;9.292;2023-04-28T01:45:09;4.63;;;2.80;;
50932;SDS011;36921;49.006;9.292;2023-04-28T01:47:36;4.65;;;3.10;;
50932;SDS011;36921;49.006;9.292;2023-04-28T01:50:01;4.10;;;2.72;;
50932;SDS011;36921;49.006;9.292;2023-04-28T01:52:27;6.90;;;3.03;;
50932;SDS011;36921;49.006;9.292;2023-04-28T01:54:53;5.32;;;2.97;;
50932;SDS011;36921;49.006;9.292;2023-04-28T01:57:19;6.05;;;2.90;;
50932;SDS011;36921;49.006;9.292;2023-04-28T01:59:45;3.90;;;2.50;;
50932;SDS011;36921;49.006;9.292;2023-04-28T02:02:10;6.50;;;2.92;;
50932;SDS011;36921;49.006;9.292;2023-04-28T02:04:36;5.22;;;2.90;;
50932;SDS011;36921;49.006;9.292;2023-04-28T02:07:02;6.45;;;3.30;;
50932;SDS011;36921;49.006;9.292;2023-04-28T02:09:28;6.30;;;2.85;;
50932;SDS011;36921;49.006;9.292;2023-04-28T02:11:54;8.27;;;3.33;;
50932;SDS011;36921;49.006;9.292;2023-04-28T02:14:19;6.15;;;3.30;;
50932;SDS011;36921;49.006;9.292;2023-04-28T02:16:45;4.78;;;3.20;;
50932;SDS011;36921;49.006;9.292;2023-04-28T02:19:10;7.32;;;2.97;;
50932;SDS011;36921;49.006;9.292;2023-04-28T02:21:36;5.28;;;3.10;;
50932;SDS011;36921;49.006;9.292;2023-04-28T02:24:01;4.97;;;3.35;;
50932;SDS011;36921;49.006;9.292;2023-04-28T02:26:33;6.60;;;3.45;;
50932;SDS011;36921;49.006;9.292;2023-04-28T02:28:59;8.02;;;3.42;;
50932;SDS011;36921;49.006;9.292;2023-04-28T02:31:25;6.50;;;3.30;;
50932;SDS011;36921;49.006;9.292;2023-04-28T02:33:50;7.07;;;3.90;;
50932;SDS011;36921;49.006;9.292;2023-04-28T02:36:15;8.45;;;4.20;;
50932;SDS011;36921;49.006;9.292;2023-04-28T02:38:41;6.57;;;4.15;;
50932;SDS011;36921;49.006;9.292;2023-04-28T02:41:07;7.80;;;3.47;;
50932;SDS011;36921;49.006;9.292;2023-04-28T02:43:35;5.83;;;3.40;;
50932;SDS011;36921;49.006;9.292;2023-04-28T02:46:02;5.80;;;3.70;;
50932;SDS011;36921;49.006;9.292;2023-04-28T02:48:28;7.22;;;3.70;;
50932;SDS011;36921;49.006;9.292;2023-04-28T02:50:53;6.97;;;3.13;;
50932;SDS011;36921;49.006;9.292;2023-04-28T02:53:19;7.72;;;3.78;;
50932;SDS011;36921;49.006;9.292;2023-04-28T02:55:45;5.95;;;3.33;;
50932;SDS011;36921;49.006;9.292;2023-04-28T02:58:10;6.32;;;3.40;;
50932;SDS011;36921;49.006;9.292;2023-04-28T03:00:36;5.00;;;3.10;;
50932;SDS011;36921;49.006;9.292;2023-04-28T03:03:02;4.97;;;3.10;;
50932;SDS011;36921;49.006;9.292;2023-04-28T03:05:28;7.55;;;3.20;;
50932;SDS011;36921;49.006;9.292;2023-04-28T03:07:54;6.60;;;3.40;;
50932;SDS011;36921;49.006;9.292;2023-04-28T03:10:20;4.35;;;2.78;;
50932;SDS011;36921;49.006;9.292;2023-04-28T03:12:45;8.77;;;3.92;;
50932;SDS011;36921;49.006;9.292;2023-04-28T03:15:11;3.83;;;2.92;;
50932;SDS011;36921;49.006;9.292;2023-04-28T03:17:36;4.70;;;3.00;;
50932;SDS011;36921;49.006;9.292;2023-04-28T03:20:03;9.20;;;3.92;;
50932;SDS011;36921;49.006;9.292;2023-04-28T03:22:29;7.88;;;3.80;;
50932;SDS011;36921;49.006;9.292;2023-04-28T03:24:55;5.70;;;3.55;;
50932;SDS011;36921;49.006;9.292;2023-04-28T03:27:20;6.50;;;4.22;;
50932;SDS011;36921;49.006;9.292;2023-04-28T03:29:46;5.25;;;3.80;;
50932;SDS011;36921;49.006;9.292;2023-04-28T03:32:11;6.90;;;4.65;;
50932;SDS011;36921;49.006;9.292;2023-04-28T03:34:37;8.20;;;4.85;;
50932;SDS011;36921;49.006;9.292;2023-04-28T03:37:02;12.77;;;5.80;;
50932;SDS011;36921;49.006;9.292;2023-04-28T03:39:27;10.82;;;5.50;;
50932;SDS011;36921;49.006;9.292;2023-04-28T03:41:53;9.18;;;4.95;;
50932;SDS011;36921;49.006;9.292;2023-04-28T03:44:18;8.43;;;5.22;;
50932;SDS011;36921;49.006;9.292;2023-04-28T03:46:44;8.48;;;5.57;;
50932;SDS011;36921;49.006;9.292;2023-04-28T03:49:09;11.43;;;5.40;;
50932;SDS011;36921;49.006;9.292;2023-04-28T03:51:34;9.40;;;5.43;;
50932;SDS011;36921;49.006;9.292;2023-04-28T03:54:00;10.90;;;5.82;;
50932;SDS011;36921;49.006;9.292;2023-04-28T03:56:26;9.25;;;5.57;;
50932;SDS011;36921;49.006;9.292;2023-04-28T03:58:51;9.10;;;5.72;;
50932;SDS011;36921;49.006;9.292;2023-04-28T04:01:16;7.70;;;5.47;;
50932;SDS011;36921;49.006;9.292;2023-04-28T04:03:43;7.45;;;5.18;;
50932;SDS011;36921;49.006;9.292;2023-04-28T04:06:08;11.68;;;5.63;;
50932;SDS011;36921;49.006;9.292;2023-04-28T04:08:34;8.65;;;4.88;;
50932;SDS011;36921;49.006;9.292;2023-04-28T04:10:59;8.70;;;5.38;;
50932;SDS011;36921;49.006;9.292;2023-04-28T04:13:25;6.63;;;5.07;;
50932;SDS011;36921;49.006;9.292;2023-04-28T04:15:50;10.63;;;5.45;;
50932;SDS011;36921;49.006;9.292;2023-04-28T04:18:17;9.90;;;5.43;;
50932;SDS011;36921;49.006;9.292;2023-04-28T04:20:42;10.70;;;6.00;;
50932;SDS011;36921;49.006;9.292;2023-04-28T04:23:08;8.93;;;5.82;;
50932;SDS011;36921;49.006;9.292;2023-04-28T04:25:33;11.85;;;5.93;;
50932;SDS011;36921;49.006;9.292;2023-04-28T04:27:59;7.45;;;5.75;;
50932;SDS011;36921;49.006;9.292;2023-04-28T04:30:25;9.55;;;5.72;;
50932;SDS011;36921;49.006;9.292;2023-04-28T04:32:50;7.55;;;4.97;;
50932;SDS011;36921;49.006;9.292;2023-04-28T04:35:16;8.00;;;5.15;;
50932;SDS011;36921;49.006;9.292;2023-04-28T04:37:41;7.85;;;4.93;;
50932;SDS011;36921;49.006;9.292;2023-04-28T04:40:07;6.75;;;4.22;;
50932;SDS011;36921;49.006;9.292;2023-04-28T04:42:33;8.00;;;4.38;;
50932;SDS011;36921;49.006;9.292;2023-04-28T04:44:58;7.18;;;4.70;;
50932;SDS011;36921;49.006;9.292;2023-04-28T04:47:23;6.60;;;3.75;;
50932;SDS011;36921;49.006;9.292;2023-04-28T04:49:49;6.78;;;4.20;;
50932;SDS011;36921;49.006;9.292;2023-04-28T04:52:17;8.68;;;3.88;;
50932;SDS011;36921;49.006;9.292;2023-04-28T04:54:43;7.85;;;3.60;;
50932;SDS011;36921;49.006;9.292;2023-04-28T04:57:09;10.20;;;4.90;;
50932;SDS011;36921;49.006;9.292;2023-04-28T04:59:35;8.40;;;4.70;;
50932;SDS011;36921;49.006;9.292;2023-04-28T05:02:00;6.07;;;3.85;;
50932;SDS011;36921;49.006;9.292;2023-04-28T05:04:26;9.90;;;3.58;;
50932;SDS011;36921;49.006;9.292;2023-04-28T05:06:51;5.40;;;3.92;;
50932;SDS011;36921;49.006;9.292;2023-04-28T05:09:17;6.32;;;3.42;;
50932;SDS011;36921;49.006;9.292;2023-04-28T05:11:42;5.07;;;3.45;;
50932;SDS011;36921;49.006;9.292;2023-04-28T05:14:08;4.30;;;2.78;;
50932;SDS011;36921;49.006;9.292;2023-04-28T05:16:33;6.97;;;3.80;;
50932;SDS011;36921;49.006;9.292;2023-04-28T05:18:58;7.00;;;3.40;;
50932;SDS011;36921;49.006;9.292;2023-04-28T05:21:24;5.82;;;3.35;;
50932;SDS011;36921;49.006;9.292;2023-04-28T05:23:49;9.10;;;3.00;;
50932;SDS011;36921;49.006;9.292;2023-04-28T05:26:15;5.93;;;2.97;;
50932;SDS011;36921;49.006;9.292;2023-04-28T05:28:41;4.88;;;3.25;;
50932;SDS011;36921;49.006;9.292;2023-04-28T05:31:06;5.88;;;3.22;;
50932;SDS011;36921;49.006;9.292;2023-04-28T05:33:32;4.40;;;2.78;;
50932;SDS011;36921;49.006;9.292;2023-04-28T05:35:57;7.47;;;3.20;;
50932;SDS011;36921;49.006;9.292;2023-04-28T05:38:23;5.13;;;3.20;;
50932;SDS011;36921;49.006;9.292;2023-04-28T05:40:49;5.60;;;3.30;;
50932;SDS011;36921;49.006;9.292;2023-04-28T05:43:14;6.90;;;3.25;;
50932;SDS011;36921;49.006;9.292;2023-04-28T05:45:39;7.47;;;2.92;;
50932;SDS011;36921;49.006;9.292;2023-04-28T05:48:05;8.68;;;2.63;;
50932;SDS011;36921;49.006;9.292;2023-04-28T05:50:31;6.40;;;3.20;;
50932;SDS011;36921;49.006;9.292;2023-04-28T05:52:56;5.85;;;2.55;;
50932;SDS011;36921;49.006;9.292;2023-04-28T05:55:22;4.93;;;2.78;;
50932;SDS011;36921;49.006;9.292;2023-04-28T05:57:47;4.68;;;2.53;;
50932;SDS011;36921;49.006;9.292;2023-04-28T06:00:13;7.18;;;3.35;;
50932;SDS011;36921;49.006;9.292;2023-04-28T06:02:39;7.45;;;2.80;;
50932;SDS011;36921;49.006;9.292;2023-04-28T06:05:06;13.40;;;4.78;;
50932;SDS011;36921;49.006;9.292;2023-04-28T06:07:31;10.70;;;3.55;;
50932;SDS011;36921;49.006;9.292;2023-04-28T06:09:57;6.10;;;2.97;;
50932;SDS011;36921;49.006;9.292;2023-04-28T06:12:22;6.03;;;3.10;;
50932;SDS011;36921;49.006;9.292;2023-04-28T06:14:48;11.20;;;3.50;;
50932;SDS011;36921;49.006;9.292;2023-04-28T06:17:13;6.65;;;3.50;;
50932;SDS011;36921;49.006;9.292;2023-04-28T06:19:38;12.43;;;3.97;;
50932;SDS011;36921;49.006;9.292;2023-04-28T06:22:04;6.88;;;4.22;;
50932;SDS011;36921;49.006;9.292;2023-04-28T06:24:29;7.18;;;4.10;;
50932;SDS011;36921;49.006;9.292;2023-04-28T06:26:55;8.68;;;5.07;;
50932;SDS011;36921;49.006;9.292;2023-04-28T06:29:20;10.95;;;4.65;;
50932;SDS011;36921;49.006;9.292;2023-04-28T06:31:48;19.25;;;5.63;;
50932;SDS011;36921;49.006;9.292;2023-04-28T06:34:13;15.35;;;6.47;;
50932;SDS011;36921;49.006;9.292;2023-04-28T06:36:39;9.35;;;5.43;;
50932;SDS011;36921;49.006;9.292;2023-04-28T06:39:04;9.85;;;5.65;;
50932;SDS011;36921;49.006;9.292;2023-04-28T06:41:30;11.70;;;5.85;;
50932;SDS011;36921;49.006;9.292;2023-04-28T06:43:55;13.65;;;5.95;;
50932;SDS011;36921;49.006;9.292;2023-04-28T06:46:21;10.55;;;6.35;;
50932;SDS011;36921;49.006;9.292;2023-04-28T06:48:46;12.23;;;6.45;;
50932;SDS011;36921;49.006;9.292;2023-04-28T06:51:13;11.82;;;6.20;;
50932;SDS011;36921;49.006;9.292;2023-04-28T06:53:38;10.93;;;6.95;;
50932;SDS011;36921;49.006;9.292;2023-04-28T06:56:04;10.00;;;6.45;;
50932;SDS011;36921;49.006;9.292;2023-04-28T06:58:30;11.30;;;6.80;;
50932;SDS011;36921;49.006;9.292;2023-04-28T07:00:55;11.48;;;7.13;;
50932;SDS011;36921;49.006;9.292;2023-04-28T07:03:20;9.98;;;6.13;;
50932;SDS011;36921;49.006;9.292;2023-04-28T07:05:46;14.80;;;6.97;;
50932;SDS011;36921;49.006;9.292;2023-04-28T07:08:11;10.57;;;6.68;;
50932;SDS011;36921;49.006;9.292;2023-04-28T07:10:37;10.75;;;6.78;;
50932;SDS011;36921;49.006;9.292;2023-04-28T07:13:02;12.48;;;6.45;;
50932;SDS011;36921;49.006;9.292;2023-04-28T07:15:28;11.27;;;6.35;;
50932;SDS011;36921;49.006;9.292;2023-04-28T07:17:53;11.65;;;6.40;;
50932;SDS011;36921;49.006;9.292;2023-04-28T07:20:19;10.50;;;6.25;;
50932;SDS011;36921;49.006;9.292;2023-04-28T07:22:44;16.15;;;6.65;;
50932;SDS011;36921;49.006;9.292;2023-04-28T07:25:10;9.98;;;6.32;;
50932;SDS011;36921;49.006;9.292;2023-04-28T07:27:35;11.40;;;5.65;;
50932;SDS011;36921;49.006;9.292;2023-04-28T07:30:01;12.15;;;6.53;;
50932;SDS011;36921;49.006;9.292;2023-04-28T07:32:26;12.57;;;6.35;;
50932;SDS011;36921;49.006;9.292;2023-04-28T07:34:52;9.63;;;5.93;;
50932;SDS011;36921;49.006;9.292;2023-04-28T07:37:17;9.07;;;5.50;;
50932;SDS011;36921;49.006;9.292;2023-04-28T07:39:43;10.07;;;5.88;;
50932;SDS011;36921;49.006;9.292;2023-04-28T07:42:09;9.93;;;5.15;;
50932;SDS011;36921;49.006;9.292;2023-04-28T07:44:34;10.10;;;5.60;;
50932;SDS011;36921;49.006;9.292;2023-04-28T07:47:01;11.00;;;5.63;;
50932;SDS011;36921;49.006;9.292;2023-04-28T07:49:30;11.38;;;6.00;;
50932;SDS011;36921;49.006;9.292;2023-04-28T07:51:56;10.13;;;5.93;;
50932;SDS011;36921;49.006;9.292;2023-04-28T07:54:21;9.55;;;6.18;;
50932;SDS011;36921;49.006;9.292;2023-04-28T07:56:48;10.43;;;5.38;;
50932;SDS011;36921;49.006;9.292;2023-04-28T07:59:14;10.65;;;5.60;;
50932;SDS011;36921;49.006;9.292;2023-04-28T08:01:39;8.27;;;5.57;;
50932;SDS011;36921;49.006;9.292;2023-04-28T08:04:05;9.80;;;5.22;;
50932;SDS011;36921;49.006;9.292;2023-04-28T08:06:30;8.23;;;5.70;;
50932;SDS011;36921;49.006;9.292;2023-04-28T08:08:57;17.45;;;7.70;;
50932;SDS011;36921;49.006;9.292;2023-04-28T08:11:23;20.30;;;7.95;;
50932;SDS011;36921;49.006;9.292;2023-04-28T08:13:48;17.00;;;7.82;;
50932;SDS011;36921;49.006;9.292;2023-04-28T08:16:14;29.60;;;9.30;;
50932;SDS011;36921;49.006;9.292;2023-04-28T08:18:40;27.55;;;9.30;;
50932;SDS011;36921;49.006;9.292;2023-04-28T08:21:05;12.80;;;6.97;;
50932;SDS011;36921;49.006;9.292;2023-04-28T08:23:30;14.57;;;6.28;;
50932;SDS011;36921;49.006;9.292;2023-04-28T08:25:57;14.90;;;5.93;;
50932;SDS011;36921;49.006;9.292;2023-04-28T08:28:22;9.13;;;5.90;;
50932;SDS011;36921;49.006;9.292;2023-04-28T08:30:48;8.98;;;5.30;;
50932;SDS011;36921;49.006;9.292;2023-04-28T08:33:13;8.20;;;4.40;;
50932;SDS011;36921;49.006;9.292;2023-04-28T08:35:39;6.03;;;4.28;;
50932;SDS011;36921;49.006;9.292;2023-04-28T08:38:05;8.80;;;4.40;;
50932;SDS011;36921;49.006;9.292;2023-04-28T08:40:32;6.90;;;3.92;;
50932;SDS011;36921;49.006;9.292;2023-04-28T08:42:58;8.90;;;4.55;;
50932;SDS011;36921;49.006;9.292;2023-04-28T08:45:24;5.93;;;4.70;;
50932;SDS011;36921;49.006;9.292;2023-04-28T08:47:49;6.53;;;3.75;;
50932;SDS011;36921;49.006;9.292;2023-04-28T08:50:15;6.15;;;4.45;;
50932;SDS011;36921;49.006;9.292;2023-04-28T08:52:46;7.22;;;4.10;;
50932;SDS011;36921;49.006;9.292;2023-04-28T08:55:11;7.60;;;5.00;;
50932;SDS011;36921;49.006;9.292;2023-04-28T08:57:42;7.03;;;4.65;;
50932;SDS011;36921;49.006;9.292;2023-04-28T09:00:09;8.73;;;4.55;;
50932;SDS011;36921;49.006;9.292;2023-04-28T09:02:35;5.63;;;4.10;;
50932;SDS011;36921;49.006;9.292;2023-04-28T09:05:06;7.00;;;4.20;;
50932;SDS011;36921;49.006;9.292;2023-04-28T09:07:35;6.68;;;4.32;;
50932;SDS011;36921;49.006;9.292;2023-04-28T09:12:43;10.30;;;4.65;;
50932;SDS011;36921;49.006;9.292;2023-04-28T09:15:08;6.75;;;3.90;;
50932;SDS011;36921;49.006;9.292;2023-04-28T09:17:47;7.13;;;3.80;;
50932;SDS011;36921;49.006;9.292;2023-04-28T09:20:20;9.77;;;4.20;;
50932;SDS011;36921;49.006;9.292;2023-04-28T09:22:53;7.50;;;4.68;;
50932;SDS011;36921;49.006;9.292;2023-04-28T09:25:20;7.32;;;4.88;;
50932;SDS011;36921;49.006;9.292;2023-04-28T09:30:50;8.68;;;4.35;;
50932;SDS011;36921;49.006;9.292;2023-04-28T09:33:15;8.60;;;5.28;;
50932;SDS011;36921;49.006;9.292;2023-04-28T09:35:41;7.70;;;4.60;;
50932;SDS011;36921;49.006;9.292;2023-04-28T09:38:09;10.70;;;5.93;;
50932;SDS011;36921;49.006;9.292;2023-04-28T09:40:51;7.32;;;5.28;;
50932;SDS011;36921;49.006;9.292;2023-04-28T09:43:24;10.43;;;5.38;;
50932;SDS011;36921;49.006;9.292;2023-04-28T09:45:54;6.22;;;4.50;;
50932;SDS011;36921;49.006;9.292;2023-04-28T09:48:31;6.30;;;4.43;;
50932;SDS011;36921;49.006;9.292;2023-04-28T09:50:58;8.13;;;4.53;;
50932;SDS011;36921;49.006;9.292;2023-04-28T09:53:25;6.32;;;4.47;;
50932;SDS011;36921;49.006;9.292;2023-04-28T09:55:52;5.72;;;4.75;;
50932;SDS011;36921;49.006;9.292;2023-04-28T09:58:19;6.00;;;4.40;;
50932;SDS011;36921;49.006;9.292;2023-04-28T10:00:46;8.20;;;5.03;;
50932;SDS011;36921;49.006;9.292;2023-04-28T10:03:16;5.60;;;4.63;;
50932;SDS011;36921;49.006;9.292;2023-04-28T10:05:43;8.43;;;5.35;;
50932;SDS011;36921;49.006;9.292;2023-04-28T10:08:09;6.85;;;4.50;;
50932;SDS011;36921;49.006;9.292;2023-04-28T10:10:35;7.97;;;5.47;;
50932;SDS011;36921;49.006;9.292;2023-04-28T10:13:02;9.50;;;5.75;;
50932;SDS011;36921;49.006;9.292;2023-04-28T10:15:27;7.40;;;5.20;;
50932;SDS011;36921;49.006;9.292;2023-04-28T10:17:53;6.85;;;4.75;;
50932;SDS011;36921;49.006;9.292;2023-04-28T10:20:19;7.45;;;5.07;;
50932;SDS011;36921;49.006;9.292;2023-04-28T10:25:44;6.22;;;4.78;;
50932;SDS011;36921;49.006;9.292;2023-04-28T10:28:13;6.13;;;4.68;;
50932;SDS011;36921;49.006;9.292;2023-04-28T10:30:40;7.07;;;4.30;;
50932;SDS011;36921;49.006;9.292;2023-04-28T10:35:41;6.35;;;4.38;;
50932;SDS011;36921;49.006;9.292;2023-04-28T10:38:18;8.45;;;3.53;;
50932;SDS011;36921;49.006;9.292;2023-04-28T10:40:51;5.07;;;3.47;;
50932;SDS011;36921;49.006;9.292;2023-04-28T10:56:12;6.90;;;1.90;;
50932;SDS011;36921;49.006;9.292;2023-04-28T10:58:52;3.80;;;1.90;;
50932;SDS011;36921;49.006;9.292;2023-04-28T11:01:27;2.67;;;1.90;;
50932;SDS011;36921;49.006;9.292;2023-04-28T11:03:56;2.53;;;1.65;;
50932;SDS011;36921;49.006;9.292;2023-04-28T11:06:27;3.33;;;1.70;;
50932;SDS011;36921;49.006;9.292;2023-04-28T11:11:39;3.33;;;1.77;;
50932;SDS011;36921;49.006;9.292;2023-04-28T11:19:33;2.83;;;1.90;;
50932;SDS011;36921;49.006;9.292;2023-04-28T11:22:04;2.60;;;1.88;;
50932;SDS011;36921;49.006;9.292;2023-04-28T11:24:57;2.53;;;1.88;;
50932;SDS011;36921;49.006;9.292;2023-04-28T11:27:26;2.47;;;1.95;;
50932;SDS011;36921;49.006;9.292;2023-04-28T11:29:52;3.22;;;1.67;;
50932;SDS011;36921;49.006;9.292;2023-04-28T11:32:24;3.90;;;1.85;;
50932;SDS011;36921;49.006;9.292;2023-04-28T11:37:22;2.30;;;1.50;;
50932;SDS011;36921;49.006;9.292;2023-04-28T11:39:48;2.65;;;1.30;;
50932;SDS011;36921;49.006;9.292;2023-04-28T11:42:13;2.50;;;1.60;;
50932;SDS011;36921;49.006;9.292;2023-04-28T11:44:39;3.45;;;1.65;;
50932;SDS011;36921;49.006;9.292;2023-04-28T11:47:05;3.05;;;1.60;;
50932;SDS011;36921;49.006;9.292;2023-04-28T11:49:32;2.45;;;1.40;;
50932;SDS011;36921;49.006;9.292;2023-04-28T11:52:06;2.58;;;1.50;;
50932;SDS011;36921;49.006;9.292;2023-04-28T11:54:32;3.28;;;1.70;;
50932;SDS011;36921;49.006;9.292;2023-04-28T11:56:58;3.05;;;1.80;;
50932;SDS011;36921;49.006;9.292;2023-04-28T11:59:32;4.07;;;1.90;;
50932;SDS011;36921;49.006;9.292;2023-04-28T12:02:00;2.30;;;1.60;;
50932;SDS011;36921;49.006;9.292;2023-04-28T12:06:59;2.22;;;1.10;;
50932;SDS011;36921;49.006;9.292;2023-04-28T12:09:26;2.13;;;1.15;;
50932;SDS011;36921;49.006;9.292;2023-04-28T12:11:51;1.50;;;1.23;;
50932;SDS011;36921;49.006;9.292;2023-04-28T12:14:24;2.03;;;1.17;;
50932;SDS011;36921;49.006;9.292;2023-04-28T12:16:50;4.18;;;0.98;;
50932;SDS011;36921;49.006;9.292;2023-04-28T12:19:16;1.95;;;1.23;;
50932;SDS011;36921;49.006;9.292;2023-04-28T12:21:43;1.92;;;1.40;;
50932;SDS011;36921;49.006;9.292;2023-04-28T12:24:25;2.70;;;1.30;;
50932;SDS011;36921;49.006;9.292;2023-04-28T12:26:51;2.70;;;1.00;;
50932;SDS011;36921;49.006;9.292;2023-04-28T12:29:33;1.35;;;0.63;;
50932;SDS011;36921;49.006;9.292;2023-04-28T12:32:00;1.65;;;0.90;;
50932;SDS011;36921;49.006;9.292;2023-04-28T12:34:26;1.63;;;0.90;;
50932;SDS011;36921;49.006;9.292;2023-04-28T12:36:53;1.23;;;0.80;;
50932;SDS011;36921;49.006;9.292;2023-04-28T12:39:18;3.55;;;1.52;;
50932;SDS011;36921;49.006;9.292;2023-04-28T12:41:44;1.75;;;0.93;;
50932;SDS011;36921;49.006;9.292;2023-04-28T12:44:10;4.55;;;0.90;;
50932;SDS011;36921;49.006;9.292;2023-04-28T12:46:35;1.70;;;0.80;;
50932;SDS011;36921;49.006;9.292;2023-04-28T12:49:01;1.88;;;0.82;;
50932;SDS011;36921;49.006;9.292;2023-04-28T12:51:26;1.50;;;0.70;;
50932;SDS011;36921;49.006;9.292;2023-04-28T12:53:53;1.27;;;0.60;;
50932;SDS011;36921;49.006;9.292;2023-04-28T12:56:19;1.15;;;0.70;;
50932;SDS011;36921;49.006;9.292;2023-04-28T12:58:44;0.60;;;0.50;;
50932;SDS011;36921;49.006;9.292;2023-04-28T13:01:09;0.77;;;0.60;;
50932;SDS011;36921;49.006;9.292;2023-04-28T13:03:34;1.92;;;0.60;;
50932;SDS011;36921;49.006;9.292;2023-04-28T13:06:00;0.70;;;0.60;;
50932;SDS011;36921;49.006;9.292;2023-04-28T13:08:25;5.82;;;2.42;;
50932;SDS011;36921;49.006;9.292;2023-04-28T13:10:51;5.60;;;2.15;;
50932;SDS011;36921;49.006;9.292;2023-04-28T13:13:16;5.03;;;1.80;;
50932;SDS011;36921;49.006;9.292;2023-04-28T13:15:41;1.75;;;0.95;;
50932;SDS011;36921;49.006;9.292;2023-04-28T13:18:06;3.42;;;1.02;;
50932;SDS011;36921;49.006;9.292;2023-04-28T13:20:32;2.45;;;1.55;;
50932;SDS011;36921;49.006;9.292;2023-04-28T13:22:57;3.05;;;1.60;;
50932;SDS011;36921;49.006;9.292;2023-04-28T13:25:22;2.05;;;1.65;;
50932;SDS011;36921;49.006;9.292;2023-04-28T13:27:47;3.35;;;1.25;;
50932;SDS011;36921;49.006;9.292;2023-04-28T13:30:13;1.40;;;0.90;;
50932;SDS011;36921;49.006;9.292;2023-04-28T13:32:38;1.58;;;0.73;;
50932;SDS011;36921;49.006;9.292;2023-04-28T13:35:04;2.40;;;0.60;;
50932;SDS011;36921;49.006;9.292;2023-04-28T13:37:29;1.02;;;0.65;;
50932;SDS011;36921;49.006;9.292;2023-04-28T13:39:55;0.52;;;0.40;;
50932;SDS011;36921;49.006;9.292;2023-04-28T13:42:22;0.77;;;0.50;;
50932;SDS011;36921;49.006;9.292;2023-04-28T13:44:47;1.48;;;0.38;;
50932;SDS011;36921;49.006;9.292;2023-04-28T13:47:13;3.15;;;0.70;;
50932;SDS011;36921;49.006;9.292;2023-04-28T13:49:38;4.15;;;2.45;;
50932;SDS011;36921;49.006;9.292;2023-04-28T13:52:04;16.98;;;8.82;;
50932;SDS011;36921;49.006;9.292;2023-04-28T13:54:29;4.90;;;0.90;;
50932;SDS011;36921;49.006;9.292;2023-04-28T13:56:55;0.70;;;0.50;;
50932;SDS011;36921;49.006;9.292;2023-04-28T13:59:20;2.05;;;0.77;;
50932;SDS011;36921;49.006;9.292;2023-04-28T14:01:46;0.65;;;0.50;;
50932;SDS011;36921;49.006;9.292;2023-04-28T14:04:11;1.33;;;0.50;;
50932;SDS011;36921;49.006;9.292;2023-04-28T14:06:37;1.98;;;0.82;;
50932;SDS011;36921;49.006;9.292;2023-04-28T14:09:02;2.75;;;0.80;;
50932;SDS011;36921;49.006;9.292;2023-04-28T14:11:28;1.33;;;0.85;;
50932;SDS011;36921;49.006;9.292;2023-04-28T14:13:53;1.73;;;1.00;;
50932;SDS011;36921;49.006;9.292;2023-04-28T14:16:18;1.90;;;0.75;;
50932;SDS011;36921;49.006;9.292;2023-04-28T14:18:43;2.42;;;0.90;;
50932;SDS011;36921;49.006;9.292;2023-04-28T14:21:09;2.78;;;0.80;;
50932;SDS011;36921;49.006;9.292;2023-04-28T14:23:34;2.40;;;0.43;;
50932;SDS011;36921;49.006;9.292;2023-04-28T14:25:59;2.05;;;0.65;;
50932;SDS011;36921;49.006;9.292;2023-04-28T14:28:25;2.35;;;1.38;;
50932;SDS011;36921;49.006;9.292;2023-04-28T14:30:52;2.78;;;0.75;;
50932;SDS011;36921;49.006;9.292;2023-04-28T14:33:18;1.42;;;0.75;;
50932;SDS011;36921;49.006;9.292;2023-04-28T14:35:43;1.90;;;0.80;;
50932;SDS011;36921;49.006;9.292;2023-04-28T14:38:08;3.08;;;1.10;;
50932;SDS011;36921;49.006;9.292;2023-04-28T14:40:33;1.80;;;0.85;;
50932;SDS011;36921;49.006;9.292;2023-04-28T14:42:59;3.30;;;0.90;;
50932;SDS011;36921;49.006;9.292;2023-04-28T14:45:24;3.03;;;1.10;;
50932;SDS011;36921;49.006;9.292;2023-04-28T14:47:50;2.97;;;1.27;;
50932;SDS011;36921;49.006;9.292;2023-04-28T14:50:15;2.42;;;1.67;;
50932;SDS011;36921;49.006;9.292;2023-04-28T14:52:40;5.20;;;2.05;;
50932;SDS011;36921;49.006;9.292;2023-04-28T14:55:06;2.78;;;1.45;;
50932;SDS011;36921;49.006;9.292;2023-04-28T14:57:32;3.15;;;1.13;;
50932;SDS011;36921;49.006;9.292;2023-04-28T14:59:58;2.33;;;1.10;;
50932;SDS011;36921;49.006;9.292;2023-04-28T15:02:24;1.98;;;1.13;;
50932;SDS011;36921;49.006;9.292;2023-04-28T15:04:53;1.80;;;1.08;;
50932;SDS011;36921;49.006;9.292;2023-04-28T15:07:20;5.28;;;1.00;;
50932;SDS011;36921;49.006;9.292;2023-04-28T15:09:46;2.88;;;1.35;;
50932;SDS011;36921;49.006;9.292;2023-04-28T15:12:12;2.38;;;1.00;;
50932;SDS011;36921;49.006;9.292;2023-04-28T15:14:37;1.90;;;1.20;;
50932;SDS011;36921;49.006;9.292;2023-04-28T15:17:02;2.35;;;1.25;;